createdAt,value
2023-01-02T00:01:40.772Z,7.10
2023-01-02T00:04:55.295Z,7.07
2023-01-02T00:08:10.326Z,7.04
2023-01-02T00:11:19.332Z,6.93
2023-01-02T00:14:27.892Z,6.89
2023-01-02T00:17:42.429Z,6.92
2023-01-02T00:20:45.202Z,6.89
2023-01-02T00:24:00.321Z,6.82
2023-01-02T00:27:08.939Z,6.74
2023-01-02T00:30:33.789Z,6.65
2023-01-02T00:33:39.984Z,6.67
2023-01-02T00:36:54.317Z,6.65
2023-01-02T00:39:56.241Z,6.65
2023-01-02T00:43:11.336Z,6.64
2023-01-02T00:46:19.331Z,6.60
2023-01-02T00:49:27.908Z,6.59
2023-01-02T00:52:36.324Z,6.60
2023-01-02T00:55:51.295Z,6.58
2023-01-02T00:58:59.314Z,6.57
2023-01-02T01:02:08.274Z,6.51
2023-01-02T01:05:17.315Z,6.48
2023-01-02T01:08:32.289Z,6.47
2023-01-02T01:11:40.358Z,6.46
2023-01-02T01:14:49.009Z,6.47
2023-01-02T01:18:04.318Z,6.41
2023-01-02T01:21:10.570Z,6.38
2023-01-02T01:24:32.316Z,6.35
2023-01-02T01:27:47.310Z,6.37
2023-01-02T01:30:55.950Z,6.34
2023-01-02T01:34:04.305Z,6.33
2023-01-02T01:37:13.023Z,6.32
2023-01-02T01:40:22.306Z,6.33
2023-01-02T01:43:42.892Z,6.31
2023-01-02T01:46:54.322Z,6.29
2023-01-02T01:50:17.326Z,6.26
2023-01-02T01:53:32.315Z,6.22
2023-01-02T01:56:46.025Z,6.12
2023-01-02T01:59:56.301Z,6.10
2023-01-02T02:03:17.393Z,6.14
2023-01-02T02:06:26.003Z,6.12
2023-01-02T02:09:34.358Z,6.12
2023-01-02T02:12:42.985Z,6.11
2023-01-02T02:16:19.390Z,6.04
2023-01-02T02:19:31.032Z,6.04
2023-01-02T02:23:24.339Z,6.04
2023-01-02T02:27:00.329Z,5.98
2023-01-02T02:30:19.815Z,5.94
2023-01-02T02:33:37.299Z,5.90
2023-01-02T02:37:08.328Z,5.84
2023-01-02T02:40:51.506Z,5.84
2023-01-02T02:44:13.303Z,5.83
2023-01-02T02:47:46.339Z,5.81
2023-01-02T02:51:15.275Z,5.81
2023-01-02T02:54:30.328Z,5.82
2023-01-02T02:57:40.301Z,5.75
2023-01-02T03:00:56.338Z,5.84
2023-01-02T03:03:58.426Z,5.83
2023-01-02T03:07:39.308Z,5.84
2023-01-02T03:11:02.323Z,5.86
2023-01-02T03:14:21.317Z,5.87
2023-01-02T03:17:41.325Z,5.89
2023-01-02T03:21:31.420Z,5.91
2023-01-02T03:24:49.306Z,5.89
2023-01-02T03:28:06.323Z,5.93
2023-01-02T03:31:18.972Z,5.96
2023-01-02T03:34:32.315Z,5.97
2023-01-02T03:37:55.302Z,6.00
2023-01-02T03:41:18.298Z,6.05
2023-01-02T03:44:31.333Z,6.08
2023-01-02T03:47:49.072Z,6.11
2023-01-02T03:51:02.307Z,6.15
2023-01-02T03:54:18.354Z,6.18
2023-01-02T03:57:57.765Z,6.20
2023-01-02T04:01:18.372Z,6.24
2023-01-02T04:05:03.300Z,6.28
2023-01-02T04:08:23.294Z,6.31
2023-01-02T04:11:35.678Z,6.32
2023-01-02T04:14:55.303Z,6.31
2023-01-02T04:18:46.842Z,6.35
2023-01-02T04:22:00.808Z,6.35
2023-01-02T04:25:25.321Z,6.32
2023-01-02T04:28:42.310Z,6.32
2023-01-02T04:32:01.344Z,6.27
2023-01-02T04:35:21.304Z,6.29
2023-01-02T04:38:30.432Z,6.30
2023-01-02T04:41:46.298Z,6.28
2023-01-02T04:44:54.286Z,6.24
2023-01-02T04:48:09.327Z,6.24
2023-01-02T04:51:24.340Z,6.22
2023-01-02T04:54:39.333Z,6.23
2023-01-02T04:57:41.220Z,6.23
2023-01-02T05:00:56.295Z,6.23
2023-01-02T05:04:05.078Z,6.22
2023-01-02T05:07:20.304Z,6.23
2023-01-02T05:10:29.303Z,6.19
2023-01-02T05:13:38.032Z,6.16
2023-01-02T05:16:53.283Z,6.17
2023-01-02T05:19:55.271Z,6.19
2023-01-02T05:23:10.278Z,6.19
2023-01-02T05:26:18.575Z,6.19
2023-01-02T05:29:33.285Z,6.21
2023-01-02T05:32:35.435Z,6.22
2023-01-02T05:35:50.325Z,6.22
2023-01-02T05:39:05.293Z,6.22
2023-01-02T05:42:13.295Z,6.22
2023-01-02T05:45:29.297Z,6.22
2023-01-02T05:48:39.142Z,6.22
2023-01-02T05:51:54.297Z,6.22
2023-01-02T05:55:03.044Z,6.21
2023-01-02T05:58:11.325Z,6.20
2023-01-02T06:01:29.330Z,6.19
2023-01-02T06:04:37.286Z,6.23
2023-01-02T06:07:52.283Z,6.22
2023-01-02T06:11:01.300Z,6.22
2023-01-02T06:14:17.284Z,6.22
2023-01-02T06:17:25.322Z,6.21
2023-01-02T06:20:38.208Z,6.21
2023-01-02T06:23:48.306Z,6.23
2023-01-02T06:27:03.659Z,6.22
2023-01-02T06:30:18.311Z,6.23
2023-01-02T06:33:20.244Z,6.25
2023-01-02T06:36:40.321Z,6.24
2023-01-02T06:39:55.293Z,6.27
2023-01-02T06:43:00.031Z,6.30
2023-01-02T06:46:17.307Z,6.30
2023-01-02T06:49:19.532Z,6.27
2023-01-02T06:52:35.346Z,6.26
2023-01-02T06:55:44.293Z,6.23
2023-01-02T06:58:59.303Z,6.27
2023-01-02T07:02:11.449Z,6.22
2023-01-02T07:05:24.583Z,6.30
2023-01-02T07:08:40.304Z,6.29
2023-01-02T07:11:55.283Z,6.27
2023-01-02T07:14:57.323Z,6.30
2023-01-02T07:18:12.299Z,6.30
2023-01-02T07:21:28.298Z,6.34
2023-01-02T07:24:50.284Z,6.36
2023-01-02T07:27:59.764Z,6.42
2023-01-02T07:31:11.302Z,6.46
2023-01-02T07:34:26.285Z,6.49
2023-01-02T07:37:28.211Z,6.49
2023-01-02T07:40:43.343Z,6.53
2023-01-02T07:44:01.303Z,6.54
2023-01-02T07:47:09.867Z,6.53
2023-01-02T07:50:24.288Z,6.58
2023-01-02T07:53:40.278Z,6.62
2023-01-02T08:03:51.372Z,6.66
2023-01-02T08:07:06.311Z,6.68
2023-01-02T08:10:21.264Z,6.71
2023-01-02T08:13:23.424Z,6.75
2023-01-02T08:16:38.400Z,6.78
2023-01-02T08:19:46.877Z,6.79
2023-01-02T08:22:55.277Z,6.83
2023-01-02T08:26:11.264Z,6.83
2023-01-02T08:29:19.318Z,6.84
2023-01-02T08:32:34.256Z,6.86
2023-01-02T08:35:42.831Z,6.91
2023-01-02T08:38:51.293Z,6.89
2023-01-02T08:41:59.911Z,6.93
2023-01-02T08:45:09.281Z,6.97
2023-01-02T08:48:20.823Z,7.00
2023-01-02T08:51:30.278Z,7.02
2023-01-02T08:54:45.316Z,7.09
2023-01-02T08:57:47.259Z,7.13
2023-01-02T09:01:02.365Z,7.11
2023-01-02T09:04:11.901Z,7.16
2023-01-02T09:07:27.285Z,7.23
2023-01-02T09:10:36.299Z,7.27
2023-01-02T09:17:55.268Z,7.30
2023-01-02T09:21:13.266Z,7.26
2023-01-02T09:28:38.307Z,7.40
2023-01-02T09:31:53.297Z,7.49
2023-01-02T09:35:01.949Z,7.55
2023-01-02T09:38:17.294Z,7.59
2023-01-02T09:41:34.468Z,7.62
2023-01-02T09:44:54.282Z,7.57
2023-01-02T09:48:09.276Z,7.58
2023-01-02T10:07:06.280Z,7.53
2023-01-02T10:10:33.288Z,7.61
2023-01-02T10:14:20.169Z,7.76
2023-01-02T10:17:24.787Z,7.87
2023-01-02T10:20:48.275Z,7.86
2023-01-02T10:24:11.317Z,8.08
2023-01-02T10:27:24.294Z,8.07
2023-01-02T10:30:46.475Z,8.04
2023-01-02T10:34:10.272Z,8.06
2023-01-02T10:37:14.393Z,8.10
2023-01-02T10:40:30.284Z,8.13
2023-01-02T10:43:33.027Z,8.15
2023-01-02T10:46:48.387Z,8.18
2023-01-02T10:50:03.277Z,8.19
2023-01-02T10:53:22.759Z,8.11
2023-01-02T10:56:40.278Z,8.18
2023-01-02T11:00:01.272Z,8.17
2023-01-02T11:03:20.901Z,8.22
2023-01-02T11:06:40.062Z,8.39
2023-01-02T11:10:02.280Z,8.45
2023-01-02T11:13:16.532Z,8.51
2023-01-02T11:16:25.363Z,8.56
2023-01-02T11:19:49.260Z,8.77
2023-01-02T11:23:01.429Z,8.96
2023-01-02T11:26:12.321Z,9.03
2023-01-02T11:29:29.023Z,9.02
2023-01-02T11:32:48.274Z,9.02
2023-01-02T11:36:05.295Z,9.20
2023-01-02T11:39:22.962Z,9.19
2023-01-02T11:42:38.296Z,9.20
2023-01-02T11:45:53.382Z,9.25
2023-01-02T11:49:13.178Z,9.28
2023-01-02T11:52:41.313Z,9.31
2023-01-02T11:56:10.744Z,9.34
2023-01-02T11:59:30.262Z,9.35
2023-01-02T12:02:47.386Z,9.36
2023-01-02T12:06:17.007Z,9.42
2023-01-02T12:09:32.263Z,9.22
2023-01-02T12:12:52.068Z,9.57
2023-01-02T12:20:16.332Z,9.72
2023-01-02T12:23:38.589Z,9.77
2023-01-02T12:27:07.314Z,9.80
2023-01-02T12:30:18.665Z,9.86
2023-01-02T12:33:58.281Z,9.91
2023-01-02T12:37:41.268Z,9.95
2023-01-02T12:41:09.858Z,9.99
2023-01-02T12:44:55.311Z,10.06
2023-01-02T12:48:31.505Z,10.10
2023-01-02T12:51:48.295Z,10.15
2023-01-02T12:55:06.332Z,10.20
2023-01-02T12:58:43.224Z,10.22
2023-01-02T13:02:09.421Z,10.19
2023-01-02T13:05:23.237Z,10.22
2023-01-02T13:08:55.345Z,10.20
2023-01-02T13:12:09.772Z,10.19
2023-01-02T13:15:18.294Z,10.18
2023-01-02T13:19:00.092Z,10.17
2023-01-02T13:22:17.717Z,10.17
2023-01-02T13:25:34.254Z,10.12
2023-01-02T13:28:56.286Z,10.01
2023-01-02T13:32:11.315Z,10.05
2023-01-02T13:35:29.294Z,10.04
2023-01-02T13:38:42.287Z,9.94
2023-01-02T13:42:09.600Z,9.86
2023-01-02T13:45:24.325Z,9.74
2023-01-02T13:48:51.289Z,9.65
2023-01-02T13:52:06.279Z,9.64
2023-01-02T13:55:27.094Z,9.59
2023-01-02T13:58:59.306Z,9.49
2023-01-02T14:02:17.134Z,9.46
2023-01-02T14:06:03.396Z,9.43
2023-01-02T14:09:31.251Z,9.40
2023-01-02T14:12:53.765Z,9.34
2023-01-02T14:16:32.271Z,9.25
2023-01-02T14:19:34.611Z,9.24
2023-01-02T14:23:14.277Z,9.21
2023-01-02T14:26:39.287Z,9.16
2023-01-02T14:29:55.261Z,9.11
2023-01-02T14:33:18.292Z,9.05
2023-01-02T14:37:07.274Z,8.96
2023-01-02T14:40:11.220Z,8.87
2023-01-02T14:43:40.272Z,8.82
2023-01-02T14:46:43.247Z,8.76
2023-01-02T14:50:06.293Z,8.72
2023-01-02T14:53:36.290Z,8.69
2023-01-02T14:56:52.936Z,8.35
2023-01-02T15:00:13.257Z,8.60
2023-01-02T15:03:30.479Z,8.53
2023-01-02T15:06:52.272Z,8.49
2023-01-02T15:10:09.350Z,8.45
2023-01-02T15:13:30.250Z,8.38
2023-01-02T15:16:54.820Z,8.33
2023-01-02T15:20:07.268Z,8.27
2023-01-02T15:23:21.357Z,8.24
2023-01-02T15:26:34.689Z,8.20
2023-01-02T15:29:52.513Z,8.18
2023-01-02T15:33:01.265Z,8.16
2023-01-02T15:36:21.287Z,8.12
2023-01-02T15:39:45.259Z,8.03
2023-01-02T15:42:57.647Z,7.94
2023-01-02T15:46:06.323Z,7.88
2023-01-02T15:49:22.385Z,7.81
2023-01-02T15:52:35.287Z,7.72
2023-01-02T15:55:43.911Z,7.74
2023-01-02T15:58:56.305Z,7.67
2023-01-02T16:02:05.518Z,7.65
2023-01-02T16:05:22.277Z,7.62
2023-01-02T16:08:37.579Z,7.60
2023-01-02T16:11:59.333Z,7.61
2023-01-02T16:15:15.278Z,7.61
2023-01-02T16:18:25.836Z,7.61
2023-01-02T16:21:40.298Z,7.58
2023-01-02T16:25:11.274Z,7.57
2023-01-02T16:28:34.856Z,7.55
2023-01-02T16:32:00.611Z,7.54
2023-01-02T16:35:27.290Z,7.51
2023-01-02T16:38:51.911Z,7.49
2023-01-02T16:42:06.263Z,7.43
2023-01-02T16:45:08.569Z,7.35
2023-01-02T16:48:35.294Z,7.37
2023-01-02T16:51:52.299Z,7.39
2023-01-02T16:55:00.966Z,7.38
2023-01-02T16:58:09.295Z,7.38
2023-01-02T17:01:25.456Z,7.39
2023-01-02T17:04:40.283Z,7.41
2023-01-02T17:07:48.930Z,7.43
2023-01-02T17:10:58.290Z,7.38
2023-01-02T17:14:13.291Z,7.35
2023-01-02T17:17:22.062Z,7.31
2023-01-02T17:20:30.312Z,7.33
2023-01-02T17:23:39.013Z,7.24
2023-01-02T17:26:54.308Z,7.16
2023-01-02T17:29:56.283Z,7.11
2023-01-02T17:33:19.315Z,7.13
2023-01-02T17:36:28.282Z,7.02
2023-01-02T17:39:43.305Z,6.94
2023-01-02T17:42:45.951Z,6.91
2023-01-02T17:46:00.316Z,6.93
2023-01-02T17:49:15.290Z,6.90
2023-01-02T17:52:30.269Z,6.93
2023-01-02T17:55:39.292Z,6.93
2023-01-02T17:58:54.408Z,6.92
2023-01-02T18:02:09.396Z,6.90
2023-01-02T18:05:18.471Z,6.90
2023-01-02T18:08:34.395Z,6.82
2023-01-02T18:11:43.020Z,6.79
2023-01-02T18:14:52.475Z,6.72
2023-01-02T18:18:06.441Z,6.71
2023-01-02T18:21:20.342Z,6.72
2023-01-02T18:24:32.611Z,6.76
2023-01-02T18:27:47.631Z,6.75
2023-01-02T18:31:05.962Z,6.70
2023-01-02T18:34:47.599Z,6.73
2023-01-02T18:37:51.491Z,6.69
2023-01-02T18:41:06.336Z,6.66
2023-01-02T18:44:25.068Z,6.68
2023-01-02T18:47:44.587Z,6.69
2023-01-02T18:51:05.259Z,6.69
2023-01-02T18:54:35.626Z,6.71
2023-01-02T18:57:54.297Z,6.71
2023-01-02T19:01:42.345Z,6.74
2023-01-02T19:04:52.021Z,6.62
2023-01-02T19:08:09.635Z,6.78
2023-01-02T19:11:22.561Z,6.78
2023-01-02T19:14:49.342Z,6.82
2023-01-02T19:17:51.455Z,6.87
2023-01-02T19:21:22.667Z,6.91
2023-01-02T19:24:31.863Z,6.84
2023-01-02T19:27:47.394Z,6.92
2023-01-02T19:30:49.777Z,6.91
2023-01-02T19:34:07.304Z,6.95
2023-01-02T19:37:23.887Z,6.97
2023-01-02T19:40:40.673Z,6.98
2023-01-02T19:43:49.498Z,6.97
2023-01-02T19:46:58.250Z,7.01
2023-01-02T19:50:10.983Z,7.03
2023-01-02T19:53:26.658Z,7.00
2023-01-02T19:56:42.491Z,7.03
2023-01-02T19:59:50.551Z,7.06
2023-01-02T20:03:12.646Z,7.05
2023-01-02T20:06:15.194Z,7.03
2023-01-02T20:09:32.345Z,7.06
2023-01-02T20:12:48.287Z,7.03
2023-01-02T20:16:05.360Z,7.01
2023-01-02T20:19:22.267Z,7.07
2023-01-02T20:22:32.357Z,7.05
2023-01-02T20:25:41.289Z,7.08
2023-01-02T20:28:57.300Z,7.09
2023-01-02T20:32:19.384Z,7.05
2023-01-02T20:35:29.582Z,7.07
2023-01-02T20:38:45.427Z,7.10
2023-01-02T20:41:48.420Z,6.99
2023-01-02T20:45:04.687Z,7.06
2023-01-02T20:48:13.654Z,7.10
2023-01-02T20:51:23.246Z,7.10
2023-01-02T20:54:39.828Z,7.11
2023-01-02T20:57:51.586Z,7.13
2023-01-02T21:01:09.256Z,7.15
2023-01-02T21:04:22.700Z,7.15
2023-01-02T21:07:37.456Z,7.18
2023-01-02T21:10:55.363Z,7.10
2023-01-02T21:14:11.704Z,7.16
2023-01-02T21:17:20.132Z,7.20
2023-01-02T21:20:39.854Z,7.17
2023-01-02T21:24:05.031Z,7.20
2023-01-02T21:27:21.291Z,7.22
2023-01-02T21:30:37.309Z,7.20
2023-01-02T21:33:45.934Z,7.16
2023-01-02T21:37:00.273Z,7.24
2023-01-02T21:40:09.410Z,7.23
2023-01-02T21:43:24.245Z,7.18
2023-01-02T21:46:39.271Z,7.29
2023-01-02T21:49:47.880Z,7.31
2023-01-02T21:52:57.296Z,7.33
2023-01-02T21:56:06.023Z,7.34
2023-01-02T21:59:14.250Z,7.35
2023-01-02T22:02:36.928Z,7.38
2023-01-02T22:05:40.823Z,7.38
2023-01-02T22:08:55.266Z,7.36
2023-01-02T22:12:10.262Z,7.37
2023-01-02T22:15:12.898Z,7.41
2023-01-02T22:18:27.305Z,7.39
2023-01-02T22:21:36.283Z,7.42
2023-01-02T22:24:46.763Z,7.37
2023-01-02T22:27:55.262Z,7.39
2023-01-02T22:31:18.265Z,7.31
2023-01-02T22:34:29.266Z,7.39
2023-01-02T22:37:37.961Z,7.42
2023-01-02T22:40:47.306Z,7.42
2023-01-02T22:44:02.315Z,7.28
2023-01-02T22:47:04.286Z,7.40
2023-01-02T22:50:32.278Z,7.47
2023-01-02T22:53:48.267Z,7.49
2023-01-02T22:56:59.255Z,7.51
2023-01-02T23:00:08.935Z,7.44
2023-01-02T23:03:25.275Z,7.47
2023-01-02T23:06:41.386Z,7.49
2023-01-02T23:10:06.264Z,7.48
2023-01-02T23:13:15.261Z,7.52
2023-01-02T23:16:31.313Z,7.52
2023-01-02T23:19:33.310Z,7.50
2023-01-02T23:22:48.225Z,7.53
2023-01-02T23:25:50.089Z,7.56
2023-01-02T23:29:06.939Z,7.57
2023-01-02T23:32:23.253Z,7.58
2023-01-02T23:35:31.844Z,7.57
2023-01-02T23:38:41.296Z,7.57
2023-01-02T23:41:58.244Z,7.59
2023-01-02T23:45:06.247Z,7.55
2023-01-02T23:48:21.244Z,7.55
2023-01-02T23:51:29.288Z,7.56
2023-01-02T23:54:38.062Z,7.59
2023-01-02T23:57:46.264Z,7.58
